Northfield, Ohio
Current Conditions -  °F | °C
As of 2:53 AM on Friday 24 Oct 2014 (Local Time) from KBKL Reporting Station
Clear Clear  
Wind Chill: 45°   Ceiling: Unl
Heat Index: 45°   Visibility: 10mi
Dew Point: 38°   Wind: 3mph
Humidity: 76%   Direction: 180°S
Pressure: 30.09"   Gusts: NA
Location:  41.35°N, 81.53°W
Report Text: KBKL 240653Z 18003KT 10SM CLR 07/03 A3009 RMK AO2 SLP191 T00720033
Loading
Personal Weather Stations






























Interactive Weather Map
Tropical Storm Tracking
New forecast layout! Learn more

10-Day Weather Forecast

Advertisements
Track Severe Weather on mobile